Terminal Aerodrome Forecast
Issued by NWS

Home | Current Version | Previous Version | Text Only | Print | Product List | Glossary On
Versions: 1 2 3 4 5 6 7 8 9 10 11 12 13 14 15 16 17 18
437
FTUS43 KPAH 101937 AAA
TAFCGI
TAF AMD
KCGI 101937Z 1020/1118 25007KT P6SM SCT025 OVC050
      TEMPO 1020/1024 4SM -SN BR OVC025
     FM110000 VRB06KT P6SM OVC030
     FM111500 04010KT P6SM SCT035=

USA.gov is the U.S. government's official web portal to all federal, state and local government web resources and services.